Time;durP1;ratioP1;P1;durP2;ratioP2;P2;SDS_P1;SDS_P2;PMS_P1;PMS_P2;Temp;Humidity;BMP_temperature;BMP_pressure;BME280_temperature;BME280_humidity;BME280_pressure;Samples;Min_cycle;Max_cycle;Signal;HPM_P1;HPM_P2
2020/12/27 00:00:14;;;;;;;9.20;5.45;;;;;;;-1.31;64.62;97142.48;1743338;80;21170;-55
2020/12/27 00:02:42;;;;;;;9.90;5.83;;;;;;;-1.34;64.82;97137.42;1750649;82;21068;-55
2020/12/27 00:05:09;;;;;;;9.73;5.65;;;;;;;-1.36;64.87;97141.70;1747577;82;22172;-55
2020/12/27 00:07:38;;;;;;;;;;;;;;;-1.45;65.05;97143.09;1723151;82;21605;-55
2020/12/27 00:10:06;;;;;;;8.68;5.15;;;;;;;-1.53;65.29;97138.14;1742623;81;20225;-55
2020/12/27 00:12:34;;;;;;;10.23;5.60;;;;;;;-1.67;65.63;97143.39;1755263;81;21551;-54
2020/12/27 00:15:03;;;;;;;9.45;5.33;;;;;;;-1.72;66.00;97142.62;1766236;81;21073;-55
2020/12/27 00:17:30;;;;;;;7.47;4.28;;;;;;;-1.74;66.11;97143.08;1761653;81;21357;-54
2020/12/27 00:19:58;;;;;;;6.87;4.42;;;;;;;-1.76;66.18;97136.31;1766529;81;21120;-56
2020/12/27 00:22:25;;;;;;;6.08;4.17;;;;;;;-1.84;66.18;97137.70;1737012;82;21066;-56
2020/12/27 00:24:53;;;;;;;8.08;4.58;;;;;;;-1.86;66.33;97141.94;1736978;81;21064;-56
2020/12/27 00:27:20;;;;;;;9.73;4.87;;;;;;;-1.87;66.34;97138.56;1764800;79;21148;-56
2020/12/27 00:29:47;;;;;;;7.37;4.40;;;;;;;-1.85;66.31;97151.27;1767042;81;21846;-56
2020/12/27 00:32:15;;;;;;;10.65;4.85;;;;;;;-1.87;66.15;97149.18;1765267;81;21083;-54
2020/12/27 00:34:45;;;;;;;9.08;5.15;;;;;;;-1.94;66.18;97149.69;1764988;81;21045;-55
2020/12/27 00:37:12;;;;;;;12.55;6.25;;;;;;;-2.00;66.16;97152.30;1767411;81;21480;-54
2020/12/27 00:39:39;;;;;;;12.13;5.47;;;;;;;-2.09;66.32;97150.70;1767424;79;21134;-55
2020/12/27 00:42:07;;;;;;;10.53;5.90;;;;;;;-2.14;66.56;97145.25;1766666;79;21323;-55
2020/12/27 00:44:35;;;;;;;12.33;6.28;;;;;;;-2.18;66.45;97152.51;1766508;81;21496;-55
2020/12/27 00:47:03;;;;;;;8.58;5.22;;;;;;;-2.26;66.47;97154.69;1767149;81;21065;-55
2020/12/27 00:49:30;;;;;;;10.43;5.60;;;;;;;-2.30;66.42;97153.05;1767027;81;21147;-55
2020/12/27 00:51:59;;;;;;;;;;;;;;;-2.35;66.36;97152.67;1769482;79;21108;-57
2020/12/27 00:54:27;;;;;;;9.40;4.90;;;;;;;-2.37;66.33;97148.87;1751451;82;21381;-55
2020/12/27 00:56:54;;;;;;;7.67;4.15;;;;;;;-2.41;66.20;97148.06;1751090;81;21094;-55
2020/12/27 00:59:22;;;;;;;6.35;3.72;;;;;;;-2.45;66.05;97142.62;1750314;82;21057;-55
2020/12/27 01:01:55;;;;;;;6.33;3.45;;;;;;;-2.47;66.12;97139.66;1751157;81;21113;-55
2020/12/27 01:04:33;;;;;;;4.90;3.10;;;;;;;-2.42;66.08;97136.64;1873594;76;21746;-55
2020/12/27 01:07:02;;;;;;;4.47;2.98;;;;;;;-2.39;65.70;97135.34;1841789;77;21602;-55
2020/12/27 01:09:30;;;;;;;5.08;3.47;;;;;;;-2.34;65.47;97131.48;1834168;78;21599;-55
2020/12/27 01:11:58;;;;;;;4.55;3.10;;;;;;;-2.37;65.24;97122.18;1824075;78;21555;-56
2020/12/27 01:14:25;;;;;;;4.95;3.42;;;;;;;-2.42;65.15;97108.69;1822429;78;21189;-55
2020/12/27 01:16:55;;;;;;;3.62;3.02;;;;;;;-2.47;65.15;97104.95;1841424;77;21491;-55
2020/12/27 01:19:24;;;;;;;3.85;2.98;;;;;;;-2.55;65.22;97106.73;1821221;78;21075;-55
2020/12/27 01:21:53;;;;;;;5.42;3.27;;;;;;;-2.65;65.42;97111.05;1835197;78;21357;-55
2020/12/27 01:24:24;;;;;;;6.62;4.03;;;;;;;-2.69;65.55;97117.45;1839458;78;21512;-55
2020/12/27 01:26:52;;;;;;;6.80;3.80;;;;;;;-2.74;65.69;97108.59;1814154;78;21051;-55
2020/12/27 01:29:19;;;;;;;8.35;4.55;;;;;;;-2.81;65.80;97105.27;1833856;78;21071;-55
2020/12/27 01:31:49;;;;;;;5.45;3.92;;;;;;;-2.84;65.91;97106.56;1840945;78;21394;-55
2020/12/27 01:34:21;;;;;;;6.47;4.00;;;;;;;-2.83;66.07;97105.72;1819512;78;21918;-55
2020/12/27 01:36:49;;;;;;;4.78;3.20;;;;;;;-2.74;66.16;97109.86;1833149;78;21520;-56
2020/12/27 01:39:18;;;;;;;5.28;3.20;;;;;;;-2.65;65.74;97116.55;1840899;78;21119;-56
2020/12/27 01:41:46;;;;;;;4.70;3.12;;;;;;;-2.64;65.19;97116.53;1828620;78;21153;-56
2020/12/27 01:44:16;;;;;;;4.90;3.15;;;;;;;-2.69;65.20;97107.28;1815291;77;21142;-56
2020/12/27 01:46:47;;;;;;;5.30;3.08;;;;;;;-2.77;65.19;97111.99;1841637;78;21645;-56
2020/12/27 01:49:17;;;;;;;4.30;3.05;;;;;;;-2.84;65.19;97114.19;1821394;78;21126;-56
2020/12/27 01:51:45;;;;;;;3.20;2.87;;;;;;;-2.91;65.40;97115.11;1817354;78;21070;-56
2020/12/27 01:54:13;;;;;;;3.55;3.02;;;;;;;-2.99;65.49;97107.55;1787603;79;26582;-56
2020/12/27 01:57:03;;;;;;;3.60;2.95;;;;;;;-3.07;65.64;97105.94;1800231;78;21063;-56
2020/12/27 01:59:33;;;;;;;3.90;2.62;;;;;;;-3.17;65.82;97090.77;1785313;79;21199;-56
2020/12/27 02:02:02;;;;;;;3.45;2.70;;;;;;;-3.18;65.95;97091.61;1807886;79;21090;-56
2020/12/27 02:04:47;;;;;;;3.85;2.75;;;;;;;-3.16;65.91;97090.33;1779294;78;21143;-55
2020/12/27 02:07:17;;;;;;;3.98;2.60;;;;;;;-3.18;65.90;97085.27;1815572;79;21118;-56
2020/12/27 02:10:00;;;;;;;3.93;3.30;;;;;;;-3.18;65.96;97078.92;1872883;75;22364;-56
2020/12/27 02:12:30;;;;;;;4.08;2.90;;;;;;;-3.19;66.01;97081.47;1838952;77;21718;-56
2020/12/27 02:14:58;;;;;;;4.25;2.95;;;;;;;-3.20;65.92;97083.17;1824358;78;21389;-56
2020/12/27 02:17:28;;;;;;;3.17;2.58;;;;;;;-3.18;65.84;97080.63;1839603;77;21070;-56
2020/12/27 02:20:06;;;;;;;3.73;2.77;;;;;;;-3.17;65.72;97074.27;1885653;74;22290;-55
2020/12/27 02:22:36;;;;;;;3.98;2.60;;;;;;;-3.27;65.62;97078.15;1806091;79;21077;-55
2020/12/27 02:25:19;;;;;;;4.55;3.12;;;;;;;-3.41;65.72;97077.83;1821310;78;21615;-55
2020/12/27 02:27:48;;;;;;;4.30;3.30;;;;;;;-3.52;65.94;97075.39;1773103;78;21099;-55
2020/12/27 02:30:16;;;;;;;5.83;3.60;;;;;;;-3.60;66.25;97078.81;1775003;80;21583;-55
2020/12/27 02:32:45;;;;;;;3.90;2.90;;;;;;;-3.58;66.31;97074.16;1763119;80;20982;-55
2020/12/27 02:35:12;;;;;;;5.87;2.90;;;;;;;-3.51;66.15;97080.03;1787751;80;21005;-55
2020/12/27 02:37:40;;;;;;;4.62;2.90;;;;;;;-3.47;66.05;97075.77;1761886;81;21449;-55
2020/12/27 02:40:10;;;;;;;4.12;2.50;;;;;;;-3.45;65.80;97076.19;1765371;78;21174;-56
2020/12/27 02:42:48;;;;;;;2.83;2.13;;;;;;;-3.35;65.67;97075.70;1880864;75;22279;-56
2020/12/27 02:45:19;;;;;;;;;;;;;;;-3.44;65.35;97068.97;1838829;77;20926;-55
2020/12/27 02:48:03;;;;;;;3.45;2.80;;;;;;;-3.52;65.46;97069.45;1806956;78;21201;-55
2020/12/27 02:50:44;;;;;;;4.33;2.63;;;;;;;-3.58;65.62;97062.74;1851184;76;22184;-56
2020/12/27 02:53:12;;;;;;;3.87;2.90;;;;;;;-3.66;65.57;97066.19;1793719;78;21834;-56
2020/12/27 02:55:40;;;;;;;4.58;3.20;;;;;;;-3.71;65.82;97058.17;1840348;78;23600;-55
2020/12/27 02:58:07;;;;;;;4.08;3.05;;;;;;;-3.73;65.97;97053.55;1798463;78;21010;-55
2020/12/27 03:00:38;;;;;;;5.03;2.90;;;;;;;-3.73;66.14;97058.62;1816204;78;21003;-55
2020/12/27 03:03:24;;;;;;;5.58;3.30;;;;;;;-3.66;66.20;97058.59;1805616;78;21037;-55
2020/12/27 03:05:59;;;;;;;6.67;3.30;;;;;;;-3.55;66.03;97049.20;1818340;77;21105;-55
2020/12/27 03:08:27;;;;;;;6.25;3.33;;;;;;;-3.49;65.79;97047.88;1797471;78;21381;-55
2020/12/27 03:11:08;;;;;;;6.37;3.77;;;;;;;-3.36;65.75;97041.02;1873636;75;22862;-55
2020/12/27 03:13:37;;;;;;;5.78;3.62;;;;;;;-3.35;65.56;97042.27;1824315;78;21044;-55
2020/12/27 03:16:05;;;;;;;6.62;4.50;;;;;;;-3.36;65.44;97044.81;1838591;78;21654;-55
2020/12/27 03:18:38;;;;;;;8.88;5.15;;;;;;;-3.37;65.60;97040.18;1838827;78;21082;-55
2020/12/27 03:21:25;;;;;;;8.93;4.63;;;;;;;-3.29;65.70;97036.72;1890082;76;22190;-55
2020/12/27 03:23:53;;;;;;;8.18;4.50;;;;;;;-3.27;65.66;97034.60;1873045;75;20903;-55
2020/12/27 03:26:22;;;;;;;6.67;3.90;;;;;;;-3.20;65.48;97032.41;1810987;78;20994;-55
2020/12/27 03:28:50;;;;;;;9.65;4.47;;;;;;;-3.15;65.24;97030.67;1783183;78;21141;-55
2020/12/27 03:31:18;;;;;;;8.75;4.85;;;;;;;-3.13;64.95;97038.27;1763493;81;21587;-55
2020/12/27 03:33:45;;;;;;;8.85;4.95;;;;;;;-3.17;64.94;97034.09;1781731;79;21057;-55
2020/12/27 03:36:16;;;;;;;8.35;4.72;;;;;;;-3.20;64.84;97037.92;1799523;79;20933;-55
2020/12/27 03:38:54;;;;;;;12.87;6.73;;;;;;;-3.20;64.91;97033.68;1871381;75;22394;-56
2020/12/27 03:41:40;;;;;;;10.30;5.90;;;;;;;-3.33;65.01;97035.91;1841557;78;21631;-55
2020/12/27 03:44:21;;;;;;;8.63;5.20;;;;;;;-3.37;65.24;97040.18;1863679;76;22432;-55
2020/12/27 03:47:07;;;;;;;8.05;5.08;;;;;;;-3.54;65.46;97025.10;1790796;80;21132;-56
2020/12/27 03:49:48;;;;;;;9.00;4.97;;;;;;;-3.60;65.76;97021.34;1789537;79;21379;-56
2020/12/27 03:52:21;;;;;;;7.65;4.42;;;;;;;-3.56;65.76;97025.52;1778073;80;20958;-56
2020/12/27 03:54:59;;;;;;;6.33;3.90;;;;;;;-3.53;65.65;97033.11;1756173;80;21101;-56
2020/12/27 03:57:37;;;;;;;6.03;4.07;;;;;;;-3.45;65.52;97021.64;1855221;75;22346;-56
2020/12/27 04:00:24;;;;;;;4.83;3.47;;;;;;;-3.47;65.34;97019.95;1841559;78;20904;-56
2020/12/27 04:02:54;;;;;;;3.27;2.72;;;;;;;-3.41;65.12;97019.91;1840442;78;21312;-56
2020/12/27 04:05:21;;;;;;;3.70;2.98;;;;;;;-3.42;64.82;97020.34;1808396;79;21111;-56
2020/12/27 04:07:50;;;;;;;4.10;3.10;;;;;;;-3.46;64.66;97017.84;1811904;78;21559;-56
2020/12/27 04:10:19;;;;;;;4.95;3.60;;;;;;;-3.53;64.47;97019.59;1841630;78;21058;-56
2020/12/27 04:12:47;;;;;;;3.90;3.22;;;;;;;-3.60;64.47;97018.80;1833318;78;21016;-56
2020/12/27 04:15:15;;;;;;;4.12;2.83;;;;;;;-3.71;64.37;97018.03;1822882;78;21404;-56
2020/12/27 04:17:53;;;;;;;4.50;2.90;;;;;;;-3.80;64.44;97018.08;1873626;76;22435;-55
2020/12/27 04:20:22;;;;;;;4.80;3.47;;;;;;;-3.92;64.67;97020.28;1813048;78;21142;-55
2020/12/27 04:22:51;;;;;;;5.75;3.02;;;;;;;-3.94;64.92;97016.48;1841229;78;21182;-55
2020/12/27 04:25:20;;;;;;;3.40;2.80;;;;;;;-3.92;65.12;97017.31;1779363;79;21043;-55
2020/12/27 04:27:48;;;;;;;3.60;2.90;;;;;;;-3.84;65.28;97021.08;1812898;78;21113;-55
2020/12/27 04:30:16;;;;;;;5.40;2.97;;;;;;;-3.71;65.21;97019.30;1841137;78;21563;-55
2020/12/27 04:32:53;;;;;;;4.33;3.03;;;;;;;-3.52;65.04;97015.77;1873621;76;23211;-55
2020/12/27 04:35:23;;;;;;;6.62;3.20;;;;;;;-3.47;64.77;97015.74;1812854;78;21051;-56
2020/12/27 04:37:53;;;;;;;4.85;3.45;;;;;;;-3.35;64.53;97009.28;1838749;78;22262;-55
2020/12/27 04:40:25;;;;;;;5.45;3.80;;;;;;;-3.29;64.13;97010.08;1807594;79;21090;-55
2020/12/27 04:42:53;;;;;;;5.67;3.15;;;;;;;-3.27;64.06;97006.69;1814208;78;21113;-55
2020/12/27 04:45:31;;;;;;;5.40;3.33;;;;;;;-3.18;64.00;97010.39;1873522;75;22737;-56
2020/12/27 04:48:16;;;;;;;5.67;3.17;;;;;;;-3.27;63.90;97002.88;1774851;78;21118;-55
2020/12/27 04:51:06;;;;;;;5.03;3.45;;;;;;;-3.38;64.08;97000.86;1836606;78;21025;-55
2020/12/27 04:53:36;;;;;;;4.42;3.25;;;;;;;-3.39;64.12;97003.84;1808162;79;21579;-55
2020/12/27 04:56:06;;;;;;;5.15;3.05;;;;;;;-3.38;63.92;96999.59;1808539;78;21071;-55
2020/12/27 04:58:36;;;;;;;5.03;3.12;;;;;;;-3.41;63.85;97002.98;1805290;79;21118;-56
2020/12/27 05:01:19;;;;;;;4.23;3.30;;;;;;;-3.36;63.73;97002.51;1890035;76;22272;-55
2020/12/27 05:04:05;;;;;;;4.35;3.17;;;;;;;-3.43;63.78;97003.43;1859066;77;20997;-55
2020/12/27 05:06:35;;;;;;;4.78;3.50;;;;;;;-3.43;63.81;97006.41;1788548;80;21212;-55
2020/12/27 05:09:03;;;;;;;5.50;3.87;;;;;;;-3.40;63.87;97008.48;1777966;78;21015;-55
2020/12/27 05:11:32;;;;;;;6.33;3.90;;;;;;;-3.29;64.01;97002.47;1793398;78;21118;-55
2020/12/27 05:14:03;;;;;;;6.45;4.25;;;;;;;-3.14;63.98;97002.34;1788428;78;21200;-55
2020/12/27 05:16:32;;;;;;;6.65;4.30;;;;;;;-3.00;63.48;96997.11;1788231;79;20978;-55
2020/12/27 05:19:01;;;;;;;7.60;4.90;;;;;;;-2.90;63.03;97001.23;1800827;79;21402;-55
2020/12/27 05:21:37;;;;;;;7.42;4.85;;;;;;;-2.83;62.56;96999.46;1771699;80;21073;-55
2020/12/27 05:24:01;;;;;;;9.55;5.35;;;;;;;-2.78;62.34;96999.84;1797663;77;20915;-55
2020/12/27 05:26:31;;;;;;;9.00;5.55;;;;;;;-2.77;62.00;96997.70;1746146;79;21050;-55
2020/12/27 05:29:00;;;;;;;9.63;5.60;;;;;;;-2.85;62.05;97001.19;1781877;79;21073;-55
2020/12/27 05:31:41;;;;;;;7.87;5.03;;;;;;;-2.90;62.05;96990.23;1873582;76;22357;-55
2020/12/27 05:34:28;;;;;;;10.43;6.00;;;;;;;-3.10;62.01;96990.02;1830973;78;21122;-55
2020/12/27 05:37:05;;;;;;;12.50;5.42;;;;;;;-3.26;62.32;96993.12;1833017;78;21876;-55
2020/12/27 05:39:51;;;;;;;8.05;5.42;;;;;;;-3.34;62.59;96987.27;1808591;78;21606;-55
2020/12/27 05:42:32;;;;;;;10.77;5.43;;;;;;;-3.37;62.50;96987.33;1869781;76;22193;-55
2020/12/27 05:45:16;;;;;;;8.23;5.17;;;;;;;-3.52;62.69;96981.53;1840760;78;21452;-55
2020/12/27 05:47:46;;;;;;;7.33;4.62;;;;;;;-3.67;62.78;96982.91;1815773;78;21402;-55
2020/12/27 05:50:17;;;;;;;7.40;4.50;;;;;;;-3.83;63.18;96984.73;1783389;78;21424;-55
2020/12/27 05:52:47;;;;;;;9.18;5.35;;;;;;;-4.02;63.50;96971.77;1795942;78;21198;-55
2020/12/27 05:55:19;;;;;;;9.88;5.60;;;;;;;-4.12;64.12;96981.13;1794419;79;21090;-55
2020/12/27 05:57:53;;;;;;;11.60;7.25;;;;;;;-4.12;64.43;96979.42;1801289;78;21141;-55
2020/12/27 06:00:24;;;;;;;15.55;8.23;;;;;;;-4.07;64.07;96978.13;1786169;79;21373;-55
2020/12/27 06:03:00;;;;;;;15.78;8.50;;;;;;;-4.34;64.33;96986.72;1807533;79;21504;-55
2020/12/27 06:05:57;;;;;;;20.17;9.25;;;;;;;-4.48;65.13;96981.73;1782925;79;21067;-55
2020/12/27 06:08:47;;;;;;;14.83;8.00;;;;;;;-4.32;65.25;96987.14;1807974;79;21134;-55
2020/12/27 06:11:52;;;;;;;13.43;8.08;;;;;;;-4.10;64.95;96996.72;1807097;78;21051;-55
2020/12/27 06:14:37;;;;;;;14.28;8.53;;;;;;;-3.93;64.69;97004.64;1788911;79;21908;-55
2020/12/27 06:17:32;;;;;;;18.00;9.35;;;;;;;-3.74;64.59;96996.49;1776738;79;21094;-56
2020/12/27 06:20:10;;;;;;;9.27;5.47;;;;;;;-3.53;64.48;96995.05;1815500;79;21883;-55
2020/12/27 06:22:41;;;;;;;11.22;6.03;;;;;;;-3.42;64.12;96997.92;1774933;78;21187;-55
2020/12/27 06:25:19;;;;;;;9.25;5.33;;;;;;;-3.37;63.77;96997.04;1733540;78;21457;-54
2020/12/27 06:27:48;;;;;;;11.73;6.53;;;;;;;-3.37;63.60;96998.75;1774130;80;28271;-55
2020/12/27 06:30:21;;;;;;;13.85;7.00;;;;;;;-3.35;63.45;96999.13;1763625;80;21065;-55
2020/12/27 06:32:59;;;;;;;10.58;6.60;;;;;;;-3.22;63.48;96994.79;1771814;80;21122;-55
2020/12/27 06:35:35;;;;;;;12.20;7.25;;;;;;;-2.87;62.72;96988.94;1749159;81;21509;-55
2020/12/27 06:38:21;;;;;;;19.00;9.75;;;;;;;-2.39;62.07;96989.20;1727513;81;21586;-56
2020/12/27 06:41:00;;;;;;;15.95;9.93;;;;;;;-1.64;60.78;96980.12;1722268;83;21172;-56
2020/12/27 06:43:32;;;;;;;20.80;12.00;;;;;;;-0.87;58.46;96977.48;1734052;80;21182;-56
2020/12/27 06:46:29;;;;;;;16.00;9.43;;;;;;;-0.60;56.61;96982.50;1704640;81;21169;-56
2020/12/27 06:49:12;;;;;;;15.10;8.68;;;;;;;-0.23;56.31;96972.38;1708690;83;21144;-55
2020/12/27 06:52:23;;;;;;;15.13;8.97;;;;;;;0.35;54.63;96970.22;1851646;76;22192;-55
2020/12/27 06:55:11;;;;;;;13.25;8.43;;;;;;;0.93;51.05;96953.48;1676207;84;21215;-55
2020/12/27 06:57:49;;;;;;;12.63;8.10;;;;;;;1.02;51.08;96955.77;1860942;76;22643;-55
2020/12/27 07:00:30;;;;;;;14.53;9.25;;;;;;;1.37;50.31;96950.98;1828826;78;21056;-55
2020/12/27 07:03:20;;;;;;;14.78;9.73;;;;;;;2.09;49.34;96939.48;1833657;77;21498;-56
2020/12/27 07:05:49;;;;;;;;;;;;;;;2.72;46.57;96934.91;1821381;78;20953;-56
2020/12/27 07:08:19;;;;;;;28.77;13.62;;;;;;;2.92;45.87;96947.88;1814136;78;20216;-56
2020/12/27 07:10:51;;;;;;;27.85;13.60;;;;;;;2.97;45.20;96942.59;1806640;78;21063;-56
2020/12/27 07:13:19;;;;;;;32.95;13.75;;;;;;;3.01;45.37;96942.04;1820377;77;21484;-55
2020/12/27 07:15:59;;;;;;;33.50;14.05;;;;;;;3.29;44.75;96944.49;1816135;78;23604;-56
2020/12/27 07:18:28;;;;;;;19.82;10.82;;;;;;;3.54;44.62;96948.28;1762554;80;20942;-57
2020/12/27 07:21:00;;;;;;;19.52;11.15;;;;;;;4.15;43.86;96946.85;1764170;80;28057;-55
2020/12/27 07:23:30;;;;;;;15.90;9.15;;;;;;;4.81;42.98;96951.89;1758287;80;21110;-56
2020/12/27 07:26:01;;;;;;;14.18;8.70;;;;;;;5.59;41.87;96952.84;1751200;80;21057;-56
2020/12/27 07:28:30;;;;;;;15.88;9.83;;;;;;;6.11;40.36;96939.79;1764733;80;22118;-56
2020/12/27 07:31:03;;;;;;;18.48;12.58;;;;;;;6.42;39.28;96945.14;1782670;79;21104;-54
2020/12/27 07:33:34;;;;;;;28.15;17.32;;;;;;;6.86;38.21;96945.61;1782628;80;21600;-56
2020/12/27 07:36:07;;;;;;;25.02;17.42;;;;;;;7.22;37.64;96944.22;1758409;80;21132;-56
2020/12/27 07:38:59;;;;;;;28.00;17.10;;;;;;;7.53;37.25;96930.55;1763890;80;21546;-55
2020/12/27 07:41:34;;;;;;;21.33;15.23;;;;;;;8.10;35.49;96926.17;1751522;80;21357;-56
2020/12/27 07:44:13;;;;;;;19.10;12.50;;;;;;;8.57;34.98;96917.15;1756320;80;21175;-55
2020/12/27 07:46:41;;;;;;;16.85;11.57;;;;;;;8.92;34.66;96916.41;1782217;80;21108;-55
2020/12/27 07:49:11;;;;;;;15.95;10.05;;;;;;;9.22;33.91;96905.16;1767128;80;21084;-56
2020/12/27 07:51:40;;;;;;;16.07;10.82;;;;;;;9.54;33.56;96905.81;1739380;81;21003;-56
2020/12/27 07:54:12;;;;;;;16.93;8.68;;;;;;;9.90;32.74;96900.56;1749144;81;22257;-56
2020/12/27 07:56:42;;;;;;;14.10;9.95;;;;;;;10.30;31.93;96902.38;1750114;81;21098;-54
2020/12/27 07:59:11;;;;;;;12.90;9.08;;;;;;;10.34;31.83;96899.97;1721751;81;21175;-57
2020/12/27 08:01:39;;;;;;;12.00;9.27;;;;;;;10.38;31.41;96894.97;1751695;81;21055;-56
2020/12/27 08:04:07;;;;;;;16.48;10.50;;;;;;;10.49;31.32;96895.11;1751220;82;21109;-56
2020/12/27 08:06:41;;;;;;;19.10;12.78;;;;;;;10.64;31.44;96893.71;1744377;81;21209;-55
2020/12/27 08:09:12;;;;;;;18.77;13.22;;;;;;;10.89;31.50;96895.53;1748149;81;21030;-56
2020/12/27 08:11:42;;;;;;;20.90;13.75;;;;;;;11.38;30.86;96892.20;1748071;81;21151;-55
2020/12/27 08:14:13;;;;;;;17.90;12.75;;;;;;;11.66;29.83;96888.12;1756700;81;21549;-57
2020/12/27 08:16:42;;;;;;;12.40;9.78;;;;;;;11.72;29.41;96895.02;1740591;82;21184;-55
2020/12/27 08:19:18;;;;;;;10.93;8.50;;;;;;;11.51;28.64;96891.33;1740868;82;21188;-56
2020/12/27 08:21:46;;;;;;;9.18;7.72;;;;;;;11.02;29.29;96885.98;1746316;82;21605;-56
2020/12/27 08:24:16;;;;;;;11.28;7.42;;;;;;;10.79;29.77;96889.27;1718034;82;21085;-57
2020/12/27 08:26:46;;;;;;;10.75;8.80;;;;;;;10.94;29.94;96889.56;1750549;81;21107;-55
2020/12/27 08:29:23;;;;;;;10.13;8.15;;;;;;;11.42;29.93;96885.84;1751815;81;21160;-55
2020/12/27 08:32:03;;;;;;;9.65;8.18;;;;;;;12.08;28.95;96894.69;1721125;82;22584;-56
2020/12/27 08:34:33;;;;;;;14.33;9.75;;;;;;;12.73;27.88;96893.91;1750484;82;21143;-57
2020/12/27 08:37:02;;;;;;;13.00;9.05;;;;;;;13.15;27.33;96888.17;1750794;82;21155;-56
2020/12/27 08:39:46;;;;;;;11.33;8.70;;;;;;;13.64;26.81;96890.11;1721907;82;21063;-56
2020/12/27 08:42:30;;;;;;;17.17;10.05;;;;;;;14.05;26.24;96877.70;1721534;82;21182;-55
2020/12/27 08:45:09;;;;;;;17.48;9.63;;;;;;;14.61;26.07;96875.38;1729137;81;21498;-56
2020/12/27 08:48:01;;;;;;;36.75;11.78;;;;;;;15.21;25.54;96872.16;1751639;81;21075;-56
2020/12/27 08:50:40;;;;;;;42.53;11.20;;;;;;;15.86;24.81;96872.70;1750160;82;21088;-56
2020/12/27 08:53:09;;;;;;;38.53;12.33;;;;;;;16.36;24.20;96879.19;1750570;80;21079;-55
2020/12/27 08:55:37;;;;;;;13.50;8.70;;;;;;;16.86;23.41;96875.59;1750699;82;21576;-55
2020/12/27 08:58:10;;;;;;;27.70;9.83;;;;;;;16.62;22.67;96870.76;1761361;79;21194;-56
2020/12/27 09:00:39;;;;;;;26.60;9.78;;;;;;;16.32;22.98;96856.84;1767605;81;21485;-56
2020/12/27 09:03:07;;;;;;;30.40;9.20;;;;;;;16.19;23.35;96854.49;1741381;81;21092;-56
2020/12/27 09:05:35;;;;;;;21.07;8.25;;;;;;;16.34;23.38;96848.37;1748511;80;21127;-55
2020/12/27 09:08:17;;;;;;;10.82;6.80;;;;;;;16.65;23.41;96852.64;1775986;79;21088;-56
2020/12/27 09:10:45;;;;;;;16.87;10.50;;;;;;;17.12;22.58;96842.20;1796962;79;22293;-55
2020/12/27 09:13:16;;;;;;;8.00;6.83;;;;;;;17.28;22.68;96843.73;1795242;79;21124;-56
2020/12/27 09:15:45;;;;;;;;;;;;;;;17.53;21.84;96830.92;1755476;80;21100;-55
2020/12/27 09:18:29;;;;;;;5.85;5.15;;;;;;;17.09;22.17;96822.84;1752421;80;20225;-56
2020/12/27 09:21:01;;;;;;;7.80;5.35;;;;;;;16.60;22.18;96812.45;1767490;80;21076;-55
2020/12/27 09:23:29;;;;;;;10.08;5.55;;;;;;;16.17;23.01;96796.22;1773481;80;21365;-55
2020/12/27 09:26:11;;;;;;;15.05;6.40;;;;;;;16.41;23.02;96794.14;1782656;80;25642;-57
2020/12/27 09:28:40;;;;;;;20.60;8.83;;;;;;;16.62;23.13;96790.05;1767530;81;21064;-55
2020/12/27 09:31:11;;;;;;;11.97;9.50;;;;;;;17.24;23.07;96784.69;1777658;79;21069;-55
2020/12/27 09:33:47;;;;;;;15.18;10.25;;;;;;;17.81;22.76;96788.91;1767502;80;21149;-56
2020/12/27 09:36:15;;;;;;;12.95;9.65;;;;;;;18.31;22.45;96784.98;1757102;81;21145;-55
2020/12/27 09:38:45;;;;;;;13.57;9.97;;;;;;;18.74;22.00;96787.27;1762097;80;21127;-56
2020/12/27 09:41:16;;;;;;;13.68;9.55;;;;;;;19.04;21.77;96789.10;1767383;81;21882;-55
2020/12/27 09:43:58;;;;;;;10.63;8.75;;;;;;;19.39;21.29;96790.76;1767519;81;21580;-55
2020/12/27 09:46:49;;;;;;;10.82;8.68;;;;;;;19.27;20.67;96794.64;1767539;81;21067;-55
2020/12/27 09:49:25;;;;;;;10.70;8.78;;;;;;;19.03;21.19;96793.55;1767406;81;21361;-56
2020/12/27 09:52:07;;;;;;;12.68;10.25;;;;;;;18.88;20.91;96794.62;1767331;79;21258;-54
2020/12/27 09:54:35;;;;;;;11.63;10.00;;;;;;;18.14;21.47;96789.25;1763953;81;21151;-56
2020/12/27 09:57:18;;;;;;;12.82;10.50;;;;;;;16.93;22.90;96789.38;1766440;81;21128;-54
2020/12/27 09:59:48;;;;;;;11.78;10.35;;;;;;;16.64;23.36;96796.78;1763779;80;21071;-56
2020/12/27 10:02:17;;;;;;;12.00;9.78;;;;;;;16.36;23.25;96789.31;1764536;81;22119;-56
2020/12/27 10:04:45;;;;;;;10.35;8.78;;;;;;;15.72;24.36;96786.72;1764565;81;21133;-55
2020/12/27 10:07:14;;;;;;;10.23;8.00;;;;;;;14.98;24.64;96778.73;1764609;81;21109;-56
2020/12/27 10:09:42;;;;;;;14.35;8.48;;;;;;;13.53;26.18;96778.36;1763877;80;21132;-55
2020/12/27 10:12:10;;;;;;;10.68;7.42;;;;;;;11.98;28.73;96780.58;1761977;81;21542;-56
2020/12/27 10:14:38;;;;;;;8.55;7.60;;;;;;;10.52;30.35;96794.65;1764379;81;22407;-55
2020/12/27 10:17:05;;;;;;;11.08;8.03;;;;;;;9.54;32.08;96801.37;1759560;80;21085;-56
2020/12/27 10:19:33;;;;;;;8.23;6.90;;;;;;;9.01;33.53;96807.18;1764661;79;21134;-56
2020/12/27 10:22:02;;;;;;;8.30;6.20;;;;;;;8.37;35.05;96807.08;1763891;81;21193;-55
2020/12/27 10:24:33;;;;;;;10.45;7.00;;;;;;;7.10;36.57;96790.02;1764924;80;26567;-56
2020/12/27 10:27:03;;;;;;;11.43;7.30;;;;;;;6.16;38.99;96789.67;1764456;80;21331;-56
2020/12/27 10:29:30;;;;;;;10.50;8.03;;;;;;;5.47;41.03;96777.90;1764463;81;21100;-55
2020/12/27 10:32:00;;;;;;;10.47;7.87;;;;;;;5.05;42.73;96776.86;1764705;80;21061;-56
2020/12/27 10:34:28;;;;;;;18.80;8.43;;;;;;;4.93;42.80;96772.67;1764509;81;21094;-56
2020/12/27 10:36:57;;;;;;;20.43;9.20;;;;;;;5.11;43.05;96767.58;1740765;80;21627;-56
2020/12/27 10:39:25;;;;;;;8.48;6.90;;;;;;;5.70;42.38;96766.50;1755819;81;21544;-56
2020/12/27 10:41:54;;;;;;;9.08;7.05;;;;;;;6.22;40.74;96753.31;1756008;81;21155;-55
2020/12/27 10:44:23;;;;;;;48.55;12.47;;;;;;;6.24;40.50;96754.05;1758869;80;21584;-56
2020/12/27 10:46:51;;;;;;;59.70;12.73;;;;;;;6.01;41.21;96749.59;1757139;81;21194;-55
2020/12/27 10:49:21;;;;;;;11.08;8.58;;;;;;;6.24;41.45;96739.88;1764827;80;21080;-57
2020/12/27 10:51:49;;;;;;;10.18;8.18;;;;;;;6.47;40.54;96719.38;1758474;80;22217;-57
2020/12/27 10:54:17;;;;;;;16.35;9.53;;;;;;;6.57;40.40;96711.52;1755754;81;21159;-57
2020/12/27 10:56:45;;;;;;;15.48;9.30;;;;;;;6.74;40.38;96708.52;1742846;81;21124;-55
2020/12/27 10:59:16;;;;;;;36.95;10.55;;;;;;;7.14;40.01;96711.07;1743636;81;21175;-56
2020/12/27 11:01:46;;;;;;;10.13;8.25;;;;;;;7.77;39.16;96714.92;1748443;81;21131;-56
2020/12/27 11:04:14;;;;;;;10.20;7.92;;;;;;;7.99;38.42;96713.22;1742666;81;21145;-55
2020/12/27 11:06:42;;;;;;;71.00;13.90;;;;;;;7.70;38.22;96711.87;1717802;83;21560;-55
2020/12/27 11:09:11;;;;;;;11.88;8.03;;;;;;;6.89;39.35;96709.44;1697932;83;21091;-56
2020/12/27 11:11:39;;;;;;;9.85;7.70;;;;;;;5.97;41.13;96718.91;1716738;82;21497;-56
2020/12/27 11:14:08;;;;;;;24.10;9.75;;;;;;;5.12;42.76;96717.82;1734621;81;21095;-56
2020/12/27 11:16:35;;;;;;;10.72;7.53;;;;;;;4.27;45.22;96722.87;1755832;81;23582;-56
2020/12/27 11:19:03;;;;;;;10.08;7.30;;;;;;;3.33;47.35;96721.62;1755751;81;21135;-56
2020/12/27 11:21:32;;;;;;;14.18;7.40;;;;;;;2.48;49.93;96706.03;1756028;81;21071;-56
2020/12/27 11:24:00;;;;;;;9.58;7.20;;;;;;;1.87;51.73;96702.64;1738804;81;21084;-56
2020/12/27 11:26:29;;;;;;;15.13;8.10;;;;;;;1.46;53.11;96700.56;1717491;83;21464;-56
2020/12/27 11:29:02;;;;;;;11.08;7.75;;;;;;;1.22;54.32;96708.59;1758783;81;22100;-55
2020/12/27 11:31:30;;;;;;;15.20;8.07;;;;;;;1.25;54.31;96704.21;1748355;82;21099;-56
2020/12/27 11:33:57;;;;;;;12.43;7.33;;;;;;;1.21;55.75;96705.63;1746723;81;21163;-56
2020/12/27 11:36:25;;;;;;;15.08;7.50;;;;;;;0.94;55.95;96701.77;1694849;83;21083;-56
2020/12/27 11:38:53;;;;;;;13.50;7.58;;;;;;;0.66;57.11;96686.45;1708082;83;21153;-56
2020/12/27 11:41:21;;;;;;;12.00;8.20;;;;;;;0.44;58.64;96673.45;1759013;81;22357;-56
2020/12/27 11:43:49;;;;;;;13.20;8.15;;;;;;;0.37;58.20;96679.17;1758055;80;21503;-56
2020/12/27 11:46:18;;;;;;;12.33;7.35;;;;;;;0.53;58.35;96670.64;1750764;81;21084;-55
2020/12/27 11:48:46;;;;;;;14.15;8.18;;;;;;;0.55;58.69;96668.42;1648537;82;21131;-57
2020/12/27 11:51:15;;;;;;;49.65;12.70;;;;;;;0.45;59.09;96661.09;1742339;81;21199;-55
2020/12/27 11:53:45;;;;;;;27.73;10.30;;;;;;;0.43;59.27;96663.69;1744701;82;21520;-57
2020/12/27 11:56:20;;;;;;;12.50;6.95;;;;;;;0.31;59.52;96652.55;1755550;81;21990;-56